Time;durP1;ratioP1;P1;durP2;ratioP2;P2;SDS_P1;SDS_P2;PMS_P1;PMS_P2;Temp;Humidity;BMP_temperature;BMP_pressure;BME280_temperature;BME280_humidity;BME280_pressure;Samples;Min_cycle;Max_cycle;Signal;HPM_P1;HPM_P2
2023/09/20 00:01:23;;;;;;;3.15;0.32;;;16.20;99.90;;;;;;5112474;27;20064;-67
2023/09/20 00:03:49;;;;;;;2.05;0.20;;;16.20;99.90;;;;;;5098437;28;20062;-68
2023/09/20 00:06:18;;;;;;;1.20;0.43;;;16.20;99.90;;;;;;5097065;28;20035;-67
2023/09/20 00:08:47;;;;;;;1.55;0.50;;;16.20;99.90;;;;;;5079056;28;20051;-68
2023/09/20 00:11:15;;;;;;;1.40;0.50;;;16.20;99.90;;;;;;5059813;28;20456;-68
2023/09/20 00:13:48;;;;;;;0.77;0.35;;;16.20;99.90;;;;;;5079382;28;20573;-68
2023/09/20 00:16:14;;;;;;;0.77;0.30;;;16.20;99.90;;;;;;5082339;28;20040;-68
2023/09/20 00:18:40;;;;;;;0.52;0.40;;;16.30;99.90;;;;;;5097295;28;20757;-68
2023/09/20 00:21:06;;;;;;;2.13;0.50;;;16.30;99.90;;;;;;5076830;28;20391;-68
2023/09/20 00:23:32;;;;;;;0.38;0.20;;;16.30;99.90;;;;;;5115833;27;20131;-68
2023/09/20 00:25:58;;;;;;;2.20;0.65;;;16.30;99.90;;;;;;5075475;28;20466;-68
2023/09/20 00:28:23;;;;;;;0.77;0.30;;;16.30;99.90;;;;;;5112982;27;20035;-68
2023/09/20 00:30:49;;;;;;;0.75;0.30;;;16.40;99.90;;;;;;5116119;27;20048;-68
2023/09/20 00:33:15;;;;;;;1.33;0.35;;;16.40;99.90;;;;;;5094794;28;20043;-68
2023/09/20 00:35:41;;;;;;;1.85;0.40;;;16.40;99.90;;;;;;5098315;28;20319;-68
2023/09/20 00:38:08;;;;;;;2.10;0.32;;;16.30;99.90;;;;;;5111081;28;20042;-67
2023/09/20 00:40:35;;;;;;;0.50;0.30;;;16.40;99.90;;;;;;5099137;28;20032;-68
2023/09/20 00:43:04;;;;;;;4.00;0.30;;;16.40;99.90;;;;;;5102924;28;20126;-68
2023/09/20 00:45:30;;;;;;;1.33;0.30;;;16.40;99.90;;;;;;5081284;28;20130;-68
2023/09/20 00:47:58;;;;;;;6.35;0.60;;;16.40;99.90;;;;;;5081501;28;20205;-68
2023/09/20 00:50:27;;;;;;;1.35;0.32;;;16.40;99.90;;;;;;5076751;28;20074;-68
2023/09/20 00:52:55;;;;;;;2.70;0.80;;;16.50;99.90;;;;;;5113578;28;20040;-68
2023/09/20 00:55:24;;;;;;;2.63;0.55;;;16.50;99.90;;;;;;5079443;28;20036;-68
2023/09/20 00:57:53;;;;;;;0.75;0.47;;;16.40;99.90;;;;;;5075326;28;20050;-68
2023/09/20 01:00:21;;;;;;;6.38;0.75;;;16.50;99.90;;;;;;5116098;28;20093;-68
2023/09/20 01:02:55;;;;;;;1.00;0.35;;;16.50;99.90;;;;;;5098677;28;20634;-68
2023/09/20 01:05:21;;;;;;;;;;;16.50;99.90;;;;;;5096981;28;20051;-68
2023/09/20 01:07:52;;;;;;;1.25;0.30;;;16.50;99.90;;;;;;5083179;28;19924;-68
2023/09/20 01:10:23;;;;;;;2.00;0.10;;;16.50;99.90;;;;;;5114194;27;20042;-68
2023/09/20 01:12:54;;;;;;;0.45;0.10;;;16.60;99.90;;;;;;5083298;28;20479;-68
2023/09/20 01:15:24;;;;;;;5.45;0.50;;;16.60;99.90;;;;;;5105308;28;20085;-68
2023/09/20 01:17:56;;;;;;;0.70;0.30;;;16.50;99.90;;;;;;5105609;28;20043;-68
2023/09/20 01:20:24;;;;;;;0.52;0.20;;;16.60;99.90;;;;;;5112380;27;20062;-68
2023/09/20 01:22:51;;;;;;;1.50;0.50;;;16.60;99.90;;;;;;5085104;28;20519;-68
2023/09/20 01:25:40;;;;;;;2.70;0.40;;;16.60;99.90;;;;;;5101710;28;20048;-68
2023/09/20 01:28:08;;;;;;;3.92;0.40;;;16.60;99.90;;;;;;5120320;27;20081;-68
2023/09/20 01:30:37;;;;;;;2.53;0.28;;;16.60;99.90;;;;;;5086012;28;20052;-68
2023/09/20 01:33:06;;;;;;;1.17;0.40;;;16.60;99.90;;;;;;5085598;28;20075;-68
2023/09/20 01:35:33;;;;;;;0.75;0.38;;;16.60;99.90;;;;;;5100220;28;20039;-68
2023/09/20 01:37:59;;;;;;;0.13;0.13;;;16.60;99.90;;;;;;5114673;27;20040;-68
2023/09/20 01:40:25;;;;;;;1.48;0.20;;;16.60;99.90;;;;;;5097487;28;20067;-68
2023/09/20 01:42:53;;;;;;;1.00;0.30;;;16.60;99.90;;;;;;5086107;28;20044;-68
2023/09/20 01:45:20;;;;;;;2.53;0.43;;;16.60;99.90;;;;;;5119117;27;20395;-68
2023/09/20 01:47:51;;;;;;;0.82;0.30;;;16.70;99.90;;;;;;5101560;28;20038;-68
2023/09/20 01:50:19;;;;;;;1.27;0.20;;;16.70;99.90;;;;;;5081882;28;20054;-68
2023/09/20 01:52:49;;;;;;;0.85;0.45;;;16.70;99.90;;;;;;5085752;28;20062;-68
2023/09/20 01:55:22;;;;;;;0.77;0.30;;;16.60;99.90;;;;;;5083318;28;20131;-68
2023/09/20 01:57:49;;;;;;;2.33;0.75;;;16.70;99.90;;;;;;5115297;27;20078;-68
2023/09/20 02:00:22;;;;;;;0.70;0.28;;;16.70;99.90;;;;;;5105485;28;20438;-68
2023/09/20 02:02:54;;;;;;;1.77;0.40;;;16.70;99.90;;;;;;5086692;28;20117;-68
2023/09/20 02:05:23;;;;;;;0.95;0.47;;;16.70;99.90;;;;;;5106764;27;20507;-68
2023/09/20 02:07:51;;;;;;;4.53;0.50;;;16.70;99.90;;;;;;5079933;28;20432;-68
2023/09/20 02:10:18;;;;;;;1.70;0.55;;;16.70;99.90;;;;;;5079240;28;20106;-68
2023/09/20 02:12:45;;;;;;;2.38;0.65;;;16.70;99.90;;;;;;5082687;28;20127;-68
2023/09/20 02:15:12;;;;;;;1.90;0.65;;;16.70;99.90;;;;;;5073878;28;20071;-68
2023/09/20 02:17:39;;;;;;;6.07;0.50;;;16.70;99.90;;;;;;5077161;28;20426;-68
2023/09/20 02:20:11;;;;;;;0.55;0.20;;;16.80;99.90;;;;;;5083963;28;20047;-68
2023/09/20 02:22:38;;;;;;;0.57;0.35;;;16.80;99.90;;;;;;5087863;28;20127;-68
2023/09/20 02:25:10;;;;;;;1.10;0.15;;;16.80;99.90;;;;;;5079130;28;20052;-68
2023/09/20 02:27:36;;;;;;;2.47;0.20;;;16.80;99.90;;;;;;5077956;28;20132;-68
2023/09/20 02:30:03;;;;;;;1.65;0.35;;;16.80;99.90;;;;;;5082118;28;20578;-68
2023/09/20 02:32:31;;;;;;;1.23;0.30;;;16.80;99.90;;;;;;5112657;27;20541;-68
2023/09/20 02:34:59;;;;;;;0.40;0.20;;;16.80;99.90;;;;;;5080939;28;20078;-68
2023/09/20 02:37:25;;;;;;;1.08;0.35;;;16.80;99.90;;;;;;5107679;27;20392;-68
2023/09/20 02:39:51;;;;;;;3.45;0.32;;;16.90;99.90;;;;;;5081657;28;20071;-68
2023/09/20 02:42:19;;;;;;;1.65;0.57;;;16.90;99.90;;;;;;5106686;27;20040;-68
2023/09/20 02:44:47;;;;;;;5.90;0.55;;;16.90;99.90;;;;;;5079391;28;20089;-68
2023/09/20 02:47:12;;;;;;;1.30;0.32;;;16.90;99.90;;;;;;5114323;27;20077;-69
2023/09/20 02:49:40;;;;;;;0.45;0.25;;;16.90;99.90;;;;;;5080053;28;20047;-68
2023/09/20 02:52:06;;;;;;;5.63;0.40;;;16.90;99.90;;;;;;5075743;28;20076;-69
2023/09/20 02:54:32;;;;;;;0.20;0.20;;;16.90;99.90;;;;;;5076583;28;20495;-68
2023/09/20 02:56:59;;;;;;;1.50;0.30;;;16.80;99.90;;;;;;5112849;27;20040;-68
2023/09/20 02:59:25;;;;;;;1.48;0.60;;;16.80;99.90;;;;;;5113711;27;20079;-68
2023/09/20 03:01:51;;;;;;;0.75;0.20;;;16.80;99.90;;;;;;5111873;27;20051;-68
2023/09/20 03:04:17;;;;;;;2.30;0.20;;;16.80;99.90;;;;;;5112796;27;20051;-69
2023/09/20 03:06:44;;;;;;;0.55;0.30;;;16.80;99.90;;;;;;5084515;28;20044;-69
2023/09/20 03:09:10;;;;;;;1.55;0.38;;;16.80;99.90;;;;;;5062012;28;20551;-69
2023/09/20 03:11:37;;;;;;;2.58;0.50;;;16.80;99.90;;;;;;5080651;28;20834;-68
2023/09/20 03:14:09;;;;;;;2.58;0.30;;;16.80;99.90;;;;;;5108544;27;20036;-68
2023/09/20 03:16:34;;;;;;;1.95;0.47;;;16.70;99.90;;;;;;5083608;28;20039;-68
2023/09/20 03:19:01;;;;;;;3.70;0.65;;;16.80;99.90;;;;;;5109576;27;20036;-68
2023/09/20 03:21:28;;;;;;;0.75;0.30;;;16.80;99.90;;;;;;5110081;27;20457;-68
2023/09/20 03:23:55;;;;;;;1.38;0.30;;;16.70;99.90;;;;;;5108815;27;20156;-68
2023/09/20 03:26:21;;;;;;;4.47;0.60;;;16.70;99.90;;;;;;5081243;28;20556;-68
2023/09/20 03:28:48;;;;;;;1.05;0.60;;;16.70;99.90;;;;;;5074458;28;20059;-68
2023/09/20 03:31:15;;;;;;;2.17;0.20;;;16.70;99.90;;;;;;5110748;27;20048;-67
2023/09/20 03:33:42;;;;;;;0.70;0.28;;;16.70;99.90;;;;;;5081925;28;20036;-68
2023/09/20 03:36:09;;;;;;;4.63;0.43;;;16.60;99.90;;;;;;5082454;28;20119;-68
2023/09/20 03:38:37;;;;;;;3.38;0.40;;;16.60;99.90;;;;;;5079179;28;20044;-69
2023/09/20 03:41:06;;;;;;;4.50;0.70;;;16.50;99.90;;;;;;5080160;28;20035;-68
2023/09/20 03:43:32;;;;;;;1.80;0.40;;;16.40;99.90;;;;;;5076903;28;20672;-68
2023/09/20 03:46:06;;;;;;;1.13;0.30;;;16.40;99.90;;;;;;5081501;28;20044;-70
2023/09/20 03:48:33;;;;;;;1.02;0.40;;;16.30;99.90;;;;;;5077242;28;20515;-69
2023/09/20 03:50:58;;;;;;;4.05;0.30;;;16.30;99.90;;;;;;5078870;28;20476;-69
2023/09/20 03:53:25;;;;;;;1.70;0.40;;;16.30;99.90;;;;;;5075543;28;20090;-67
2023/09/20 03:55:51;;;;;;;0.90;0.40;;;16.20;99.90;;;;;;5081667;28;20086;-67
2023/09/20 03:58:17;;;;;;;4.15;0.57;;;16.20;99.90;;;;;;5079057;28;20076;-68
2023/09/20 04:00:45;;;;;;;1.48;0.43;;;16.10;99.90;;;;;;5113334;27;20119;-67
2023/09/20 04:03:13;;;;;;;5.07;0.60;;;16.10;99.90;;;;;;5112614;27;20051;-68
2023/09/20 04:05:39;;;;;;;2.33;0.35;;;16.00;99.90;;;;;;5073892;28;20063;-68
2023/09/20 04:08:08;;;;;;;3.80;0.57;;;15.90;99.90;;;;;;5084005;28;20498;-68
2023/09/20 04:10:35;;;;;;;0.80;0.22;;;15.90;99.90;;;;;;5110080;27;20040;-68
2023/09/20 04:13:02;;;;;;;2.70;0.40;;;15.80;99.90;;;;;;5063352;28;20036;-68
2023/09/20 04:15:29;;;;;;;2.70;0.50;;;15.80;99.90;;;;;;5109123;27;20404;-68
2023/09/20 04:17:54;;;;;;;1.55;0.10;;;15.80;99.90;;;;;;5078007;28;20097;-68
2023/09/20 04:20:21;;;;;;;0.68;0.30;;;15.70;99.90;;;;;;5072094;28;20043;-68
2023/09/20 04:22:49;;;;;;;3.30;0.32;;;15.70;99.90;;;;;;5077628;28;20028;-68
2023/09/20 04:25:15;;;;;;;0.75;0.30;;;15.60;99.90;;;;;;5076196;28;20546;-68
2023/09/20 04:27:41;;;;;;;2.40;0.52;;;15.60;99.90;;;;;;5077694;28;20032;-68
2023/09/20 04:30:08;;;;;;;0.75;0.30;;;15.60;99.90;;;;;;5078575;28;20067;-67
2023/09/20 04:32:35;;;;;;;0.93;0.50;;;15.50;99.90;;;;;;5059937;28;20044;-69
2023/09/20 04:35:02;;;;;;;1.63;0.50;;;15.50;99.90;;;;;;5073103;28;20048;-68
2023/09/20 04:37:28;;;;;;;1.98;0.30;;;15.50;99.90;;;;;;5075163;28;20060;-68
2023/09/20 04:39:54;;;;;;;3.78;0.85;;;15.50;99.90;;;;;;5072001;28;20044;-68
2023/09/20 04:42:20;;;;;;;1.13;0.40;;;15.40;99.90;;;;;;5078135;28;20492;-68
2023/09/20 04:44:46;;;;;;;0.88;0.22;;;15.40;99.90;;;;;;5081796;28;20201;-68
2023/09/20 04:47:14;;;;;;;1.75;0.38;;;15.40;99.90;;;;;;5076398;28;20431;-68
2023/09/20 04:49:40;;;;;;;1.00;0.25;;;15.40;99.90;;;;;;5082166;28;20102;-69
2023/09/20 04:52:09;;;;;;;0.85;0.50;;;15.40;99.90;;;;;;5077310;28;20106;-69
2023/09/20 04:54:35;;;;;;;1.00;0.32;;;15.30;99.90;;;;;;5081098;28;20472;-69
2023/09/20 04:57:01;;;;;;;7.43;0.40;;;15.40;99.90;;;;;;5061148;28;20043;-69
2023/09/20 04:59:27;;;;;;;0.52;0.30;;;15.30;99.90;;;;;;5067207;28;20036;-68
2023/09/20 05:01:52;;;;;;;3.10;0.60;;;15.30;99.90;;;;;;5082827;28;20044;-69
2023/09/20 05:04:20;;;;;;;2.50;0.57;;;15.30;99.90;;;;;;5088548;28;20059;-69
2023/09/20 05:06:45;;;;;;;0.65;0.30;;;15.20;99.90;;;;;;5115960;27;20047;-69
2023/09/20 05:09:12;;;;;;;0.75;0.28;;;15.20;99.90;;;;;;5118319;27;20038;-69
2023/09/20 05:11:38;;;;;;;0.90;0.30;;;15.20;99.90;;;;;;5083602;28;20092;-69
2023/09/20 05:14:05;;;;;;;0.88;0.30;;;15.20;99.90;;;;;;5084915;28;20036;-69
2023/09/20 05:16:31;;;;;;;2.17;0.20;;;15.20;99.90;;;;;;5073557;28;20433;-68
2023/09/20 05:18:57;;;;;;;0.90;0.25;;;15.20;99.90;;;;;;5087067;28;20122;-68
2023/09/20 05:21:23;;;;;;;1.52;0.50;;;15.20;99.90;;;;;;5105090;27;20078;-68
2023/09/20 05:23:49;;;;;;;1.15;0.20;;;15.20;99.90;;;;;;5083073;28;20039;-68
2023/09/20 05:26:14;;;;;;;0.95;0.30;;;15.20;99.90;;;;;;5119154;27;20035;-68
2023/09/20 05:28:40;;;;;;;0.75;0.40;;;15.20;99.90;;;;;;5071663;28;20449;-68
2023/09/20 05:31:06;;;;;;;1.85;0.43;;;15.20;99.90;;;;;;5105181;28;20028;-68
2023/09/20 05:33:32;;;;;;;5.43;0.43;;;15.20;99.90;;;;;;5100321;28;20054;-68
2023/09/20 05:35:59;;;;;;;2.03;0.40;;;15.30;99.90;;;;;;5119542;27;20032;-69
2023/09/20 05:38:25;;;;;;;1.73;0.30;;;15.30;99.90;;;;;;5097867;28;20046;-68
2023/09/20 05:40:51;;;;;;;3.70;1.05;;;15.30;99.90;;;;;;5117850;27;20483;-68
2023/09/20 05:43:18;;;;;;;0.43;0.30;;;15.30;99.90;;;;;;5088551;28;20039;-69
2023/09/20 05:45:43;;;;;;;0.32;0.20;;;15.30;99.90;;;;;;5087148;28;20044;-68
2023/09/20 05:48:12;;;;;;;1.58;0.30;;;15.30;99.90;;;;;;5082515;28;20102;-68
2023/09/20 05:50:50;;;;;;;1.77;0.65;;;15.40;99.90;;;;;;5085733;28;20039;-68
2023/09/20 05:53:21;;;;;;;0.88;0.20;;;15.30;99.90;;;;;;5063791;28;20056;-69
2023/09/20 05:55:47;;;;;;;0.63;0.30;;;15.40;99.90;;;;;;5088063;28;20474;-69
2023/09/20 05:58:12;;;;;;;1.40;0.35;;;15.30;99.90;;;;;;5101011;28;20047;-69
2023/09/20 06:00:38;;;;;;;0.30;0.20;;;15.40;99.90;;;;;;5073161;28;20040;-69
2023/09/20 06:03:04;;;;;;;1.13;0.40;;;15.40;99.90;;;;;;5073806;28;20039;-68
2023/09/20 06:05:37;;;;;;;0.55;0.30;;;15.40;99.90;;;;;;5080314;28;20055;-68
2023/09/20 06:08:06;;;;;;;2.08;0.52;;;15.40;99.90;;;;;;5115554;27;20096;-68
2023/09/20 06:10:33;;;;;;;1.65;0.20;;;15.50;99.90;;;;;;5097354;28;20055;-69
2023/09/20 06:12:59;;;;;;;1.45;0.47;;;15.50;99.90;;;;;;5117959;27;20106;-68
2023/09/20 06:15:25;;;;;;;0.60;0.30;;;15.50;99.90;;;;;;5082448;28;20043;-68
2023/09/20 06:17:51;;;;;;;0.73;0.22;;;15.60;99.90;;;;;;5084547;28;20040;-68
2023/09/20 06:20:21;;;;;;;2.33;0.60;;;15.60;99.90;;;;;;5085142;28;20043;-68
2023/09/20 06:22:51;;;;;;;0.80;0.30;;;15.70;99.90;;;;;;5115419;27;20526;-68
2023/09/20 06:25:21;;;;;;;1.63;0.47;;;15.80;99.90;;;;;;5081957;28;20051;-69
2023/09/20 06:27:50;;;;;;;0.40;0.10;;;15.90;99.90;;;;;;5081011;28;20044;-68
2023/09/20 06:30:20;;;;;;;1.45;0.30;;;16.00;99.90;;;;;;5086253;28;20118;-68
2023/09/20 06:32:47;;;;;;;0.95;0.52;;;16.10;99.90;;;;;;5082895;28;20044;-69
2023/09/20 06:35:15;;;;;;;0.55;0.20;;;16.30;99.90;;;;;;5084028;28;20072;-68
2023/09/20 06:37:45;;;;;;;1.58;0.38;;;16.40;99.90;;;;;;5087019;28;20126;-68
2023/09/20 06:40:22;;;;;;;1.77;0.60;;;16.50;99.90;;;;;;5100194;28;20040;-69
2023/09/20 06:42:48;;;;;;;0.73;0.35;;;16.50;99.90;;;;;;5084180;28;20106;-68
2023/09/20 06:45:14;;;;;;;1.10;0.35;;;16.50;99.90;;;;;;5082592;28;20487;-68
2023/09/20 06:47:40;;;;;;;1.08;0.40;;;16.50;99.90;;;;;;5082375;28;20036;-68
2023/09/20 06:50:07;;;;;;;0.60;0.28;;;16.70;99.90;;;;;;5080482;28;20050;-69
2023/09/20 06:52:33;;;;;;;2.63;0.50;;;16.80;99.90;;;;;;5078998;28;20055;-68
2023/09/20 06:54:59;;;;;;;0.65;0.30;;;16.90;99.90;;;;;;5086084;28;20046;-68
2023/09/20 06:57:24;;;;;;;2.72;0.60;;;17.00;99.90;;;;;;5083167;28;20031;-68
2023/09/20 06:59:54;;;;;;;0.93;0.28;;;17.10;99.90;;;;;;5096645;28;20047;-69
2023/09/20 07:02:20;;;;;;;0.47;0.40;;;17.20;99.90;;;;;;5085393;28;20051;-69
2023/09/20 07:04:48;;;;;;;2.47;0.30;;;17.30;99.90;;;;;;5081630;28;21302;-68
2023/09/20 07:07:14;;;;;;;1.20;0.17;;;17.30;99.90;;;;;;5067114;28;20063;-68
2023/09/20 07:09:39;;;;;;;0.40;0.20;;;17.40;99.90;;;;;;5112573;27;20089;-68
2023/09/20 07:12:06;;;;;;;1.95;0.50;;;17.40;99.90;;;;;;5084682;28;20040;-68
2023/09/20 07:14:32;;;;;;;3.08;0.40;;;17.50;99.90;;;;;;5080793;28;20126;-68
2023/09/20 07:17:00;;;;;;;0.43;0.22;;;17.60;99.90;;;;;;5116237;27;20134;-68
2023/09/20 07:19:29;;;;;;;3.88;0.73;;;17.60;99.90;;;;;;5117432;27;20032;-68
2023/09/20 07:21:56;;;;;;;1.25;0.60;;;17.70;99.90;;;;;;5114045;27;20082;-68
2023/09/20 07:24:25;;;;;;;5.88;0.73;;;17.70;99.90;;;;;;5081920;28;20039;-68
2023/09/20 07:26:58;;;;;;;0.32;0.10;;;17.70;99.90;;;;;;5081442;28;20031;-68
2023/09/20 07:29:24;;;;;;;2.90;0.47;;;17.70;99.90;;;;;;5084317;28;20074;-68
2023/09/20 07:31:50;;;;;;;2.20;0.60;;;17.80;99.90;;;;;;5100717;27;20062;-68
2023/09/20 07:34:19;;;;;;;0.95;0.28;;;18.00;99.90;;;;;;5080316;28;20446;-67
2023/09/20 07:36:49;;;;;;;2.28;0.40;;;18.30;99.90;;;;;;5107200;27;20043;-67
2023/09/20 07:39:20;;;;;;;1.10;0.47;;;18.60;99.90;;;;;;5078188;28;20039;-68
2023/09/20 07:41:46;;;;;;;0.73;0.40;;;19.00;99.90;;;;;;5078405;28;20051;-68
2023/09/20 07:44:15;;;;;;;3.72;0.63;;;19.30;99.90;;;;;;5116117;27;20039;-68
2023/09/20 07:46:42;;;;;;;0.68;0.35;;;19.50;99.90;;;;;;5111832;27;20044;-68
2023/09/20 07:49:13;;;;;;;2.47;0.40;;;19.50;99.90;;;;;;5095271;28;20130;-68
2023/09/20 07:51:39;;;;;;;0.90;0.38;;;19.40;99.90;;;;;;5076101;28;20042;-68
2023/09/20 07:54:14;;;;;;;1.80;0.47;;;19.20;99.90;;;;;;5100233;28;20478;-68
2023/09/20 07:56:43;;;;;;;0.75;0.20;;;19.10;99.90;;;;;;5097223;28;20298;-68
2023/09/20 07:59:12;;;;;;;1.98;0.40;;;19.00;99.90;;;;;;5079533;28;20176;-69
2023/09/20 08:01:41;;;;;;;2.13;0.35;;;18.80;99.90;;;;;;5098981;28;20069;-69
2023/09/20 08:04:10;;;;;;;1.42;0.45;;;18.80;99.90;;;;;;5107824;27;20340;-69
2023/09/20 08:06:36;;;;;;;0.77;0.20;;;18.90;99.90;;;;;;5064159;28;20358;-69
2023/09/20 08:09:06;;;;;;;2.05;0.57;;;19.00;99.90;;;;;;5105369;27;20036;-68
2023/09/20 08:11:32;;;;;;;0.95;0.50;;;19.00;99.90;;;;;;5095531;28;20044;-69
2023/09/20 08:14:03;;;;;;;1.70;0.43;;;18.90;99.90;;;;;;5102946;27;20039;-69
2023/09/20 08:16:32;;;;;;;1.60;0.52;;;18.80;99.90;;;;;;5072356;28;20051;-70
2023/09/20 08:19:20;;;;;;;1.98;0.32;;;18.80;99.90;;;;;;5105391;27;20051;-69
2023/09/20 08:21:47;;;;;;;1.00;0.38;;;18.70;99.90;;;;;;5059812;28;20040;-69
2023/09/20 09:00:00;;;;;;;1.30;0.22;;;18.30;99.90;;;;;;5110073;28;20046;-66
2023/09/20 09:02:29;;;;;;;0.73;0.30;;;18.30;99.90;;;;;;5077618;28;20044;-67
2023/09/20 09:04:55;;;;;;;0.75;0.20;;;18.30;99.90;;;;;;5090403;28;20496;-66
2023/09/20 09:07:24;;;;;;;1.45;0.30;;;18.30;99.90;;;;;;5111795;28;20058;-65
2023/09/20 09:09:51;;;;;;;0.90;0.30;;;18.30;99.90;;;;;;5076734;28;20111;-67
2023/09/20 09:12:17;;;;;;;2.25;0.38;;;18.30;99.90;;;;;;5110901;28;20058;-67
2023/09/20 09:14:46;;;;;;;1.10;0.50;;;18.30;99.90;;;;;;5077822;28;20044;-66
2023/09/20 09:17:13;;;;;;;2.10;0.20;;;18.30;99.90;;;;;;5076596;28;20044;-67
2023/09/20 09:19:39;;;;;;;0.52;0.30;;;18.30;99.90;;;;;;5094802;28;20097;-66
2023/09/20 09:22:06;;;;;;;0.20;0.20;;;18.40;99.90;;;;;;5098313;28;20044;-66
2023/09/20 09:24:51;;;;;;;1.90;0.32;;;18.50;99.90;;;;;;5094573;28;20516;-66
2023/09/20 09:27:18;;;;;;;0.77;0.30;;;18.50;99.90;;;;;;5079430;28;20157;-66
2023/09/20 09:29:44;;;;;;;0.20;0.15;;;18.60;99.90;;;;;;5113470;28;20507;-67
2023/09/20 09:32:10;;;;;;;0.60;0.30;;;18.70;99.90;;;;;;5104532;28;20448;-67
2023/09/20 09:34:42;;;;;;;1.40;0.40;;;18.80;99.90;;;;;;5102205;28;20046;-67
2023/09/20 09:37:11;;;;;;;1.13;0.30;;;18.80;99.90;;;;;;5103217;28;20488;-66
2023/09/20 09:39:39;;;;;;;1.98;0.50;;;19.00;99.90;;;;;;5083969;28;20053;-68
2023/09/20 09:42:06;;;;;;;1.80;0.32;;;19.10;99.90;;;;;;5078131;28;20040;-68
2023/09/20 09:44:48;;;;;;;0.88;0.25;;;19.10;99.90;;;;;;5082361;28;20051;-68
2023/09/20 09:47:17;;;;;;;1.48;0.30;;;19.30;99.90;;;;;;5081084;28;20048;-68
2023/09/20 09:49:43;;;;;;;1.13;0.30;;;19.40;99.90;;;;;;5099930;28;20562;-67
2023/09/20 09:52:11;;;;;;;0.52;0.10;;;19.40;99.90;;;;;;5116176;27;20036;-67
2023/09/20 09:54:38;;;;;;;0.40;0.20;;;19.30;99.90;;;;;;5098795;28;20058;-67
2023/09/20 09:57:04;;;;;;;0.55;0.17;;;19.20;99.90;;;;;;5120093;27;20043;-67
2023/09/20 09:59:30;;;;;;;0.68;0.10;;;19.20;99.90;;;;;;5098603;28;20097;-67
2023/09/20 10:02:00;;;;;;;2.03;0.28;;;19.20;99.90;;;;;;5118777;27;20408;-68
2023/09/20 10:04:26;;;;;;;0.93;0.20;;;19.10;99.90;;;;;;5096788;28;20669;-66
2023/09/20 10:07:09;;;;;;;1.75;0.52;;;19.10;99.90;;;;;;5100289;28;20035;-67
2023/09/20 10:09:41;;;;;;;0.40;0.22;;;19.10;99.90;;;;;;5114251;27;20039;-67
2023/09/20 10:12:08;;;;;;;0.28;0.17;;;19.10;99.90;;;;;;5102610;28;20078;-67
2023/09/20 10:14:37;;;;;;;1.30;0.32;;;19.10;99.90;;;;;;5103607;28;20729;-67
2023/09/20 10:17:06;;;;;;;1.23;0.40;;;19.10;99.90;;;;;;5117202;27;20548;-67
2023/09/20 10:19:33;;;;;;;0.30;0.08;;;19.10;99.90;;;;;;5097768;28;20070;-69
2023/09/20 10:22:10;;;;;;;0.70;0.32;;;19.20;99.90;;;;;;5083610;28;20071;-68
2023/09/20 10:24:47;;;;;;;0.43;0.20;;;19.30;99.90;;;;;;5100096;28;20047;-68
2023/09/20 10:27:17;;;;;;;2.33;0.20;;;19.40;99.90;;;;;;5083726;28;20452;-67
2023/09/20 10:30:00;;;;;;;0.45;0.30;;;19.40;99.90;;;;;;5080813;28;20114;-67
2023/09/20 10:32:33;;;;;;;1.10;0.13;;;19.50;99.90;;;;;;5098936;28;20047;-67
2023/09/20 10:35:19;;;;;;;0.55;0.10;;;19.50;99.90;;;;;;5080718;28;20044;-68
2023/09/20 10:38:17;;;;;;;0.45;0.20;;;19.50;99.90;;;;;;5119886;27;20177;-67
2023/09/20 10:40:51;;;;;;;0.30;0.20;;;19.50;99.90;;;;;;5101636;28;20055;-67
2023/09/20 10:43:25;;;;;;;0.10;0.10;;;19.60;99.90;;;;;;5081335;28;20044;-67
2023/09/20 10:45:55;;;;;;;3.67;0.28;;;19.60;99.90;;;;;;5080946;28;20304;-67
2023/09/20 10:48:26;;;;;;;0.40;0.20;;;19.60;99.90;;;;;;5078542;28;20218;-67
2023/09/20 10:50:54;;;;;;;0.30;0.20;;;19.50;99.90;;;;;;5097734;28;20067;-67
2023/09/20 10:53:22;;;;;;;0.30;0.10;;;19.50;99.90;;;;;;5102032;28;20116;-67
2023/09/20 10:55:51;;;;;;;0.20;0.00;;;19.50;99.90;;;;;;5081025;28;20127;-66
2023/09/20 10:58:23;;;;;;;0.93;0.30;;;19.50;99.90;;;;;;5113106;27;20101;-66
2023/09/20 11:00:50;;;;;;;0.40;0.10;;;19.50;99.90;;;;;;5115878;27;20051;-66
2023/09/20 11:03:18;;;;;;;1.40;0.60;;;19.40;99.90;;;;;;5101765;28;20105;-66
2023/09/20 11:05:44;;;;;;;0.98;0.20;;;19.30;99.90;;;;;;5098255;28;20056;-66
2023/09/20 11:08:13;;;;;;;0.52;0.20;;;19.40;99.90;;;;;;5082412;28;20442;-66
2023/09/20 11:10:46;;;;;;;1.88;0.28;;;19.30;99.90;;;;;;5081546;28;20121;-66
2023/09/20 11:13:14;;;;;;;1.70;0.30;;;19.40;99.90;;;;;;5117484;27;20039;-66
2023/09/20 11:15:43;;;;;;;0.90;0.20;;;19.40;99.90;;;;;;5075825;28;20115;-66
2023/09/20 11:18:10;;;;;;;0.45;0.20;;;19.50;99.90;;;;;;5104184;28;20088;-67
2023/09/20 11:20:39;;;;;;;0.80;0.10;;;19.60;99.90;;;;;;5078538;28;20040;-66
2023/09/20 11:23:06;;;;;;;1.02;0.30;;;19.70;99.90;;;;;;5083014;28;20079;-66
2023/09/20 11:25:33;;;;;;;0.40;0.15;;;19.80;99.90;;;;;;5080197;28;20039;-65
2023/09/20 11:27:58;;;;;;;0.50;0.10;;;19.90;99.90;;;;;;5100083;28;20051;-66
2023/09/20 11:30:27;;;;;;;0.40;0.20;;;20.00;99.90;;;;;;5099643;28;20032;-66
2023/09/20 11:32:58;;;;;;;1.08;0.20;;;20.00;99.90;;;;;;5094058;28;20048;-67
2023/09/20 11:35:38;;;;;;;0.35;0.20;;;20.10;99.90;;;;;;5071636;28;20036;-66
2023/09/20 11:38:06;;;;;;;1.17;0.73;;;20.20;99.90;;;;;;5100039;28;20031;-69
2023/09/20 11:40:36;;;;;;;0.35;0.15;;;20.30;99.90;;;;;;5113845;27;20414;-69
2023/09/20 11:43:06;;;;;;;0.98;0.30;;;20.30;99.90;;;;;;5115335;27;20128;-68
2023/09/20 11:45:41;;;;;;;1.00;0.30;;;20.40;99.90;;;;;;5115382;27;20124;-69
2023/09/20 11:48:12;;;;;;;0.30;0.20;;;20.50;99.90;;;;;;5112479;27;20388;-69
2023/09/20 11:50:45;;;;;;;1.48;0.30;;;20.70;99.90;;;;;;5110709;27;20047;-68
2023/09/20 11:53:15;;;;;;;0.65;0.20;;;21.40;99.90;;;;;;5114237;27;20032;-69
2023/09/20 11:55:44;;;;;;;0.60;0.25;;;22.50;99.90;;;;;;5077721;28;20035;-68
2023/09/20 11:58:10;;;;;;;1.58;0.40;;;23.50;99.90;;;;;;5113518;27;20075;-70
2023/09/20 12:00:36;;;;;;;0.20;0.10;;;24.20;99.90;;;;;;5083264;28;20071;-71
2023/09/20 12:03:03;;;;;;;0.52;0.38;;;24.90;99.90;;;;;;5058036;28;20067;-70
2023/09/20 12:05:28;;;;;;;0.30;0.10;;;25.50;99.90;;;;;;5077060;28;20056;-72
2023/09/20 12:07:59;;;;;;;0.55;0.30;;;25.90;99.90;;;;;;5083960;28;20051;-68
2023/09/20 12:10:26;;;;;;;0.38;0.20;;;26.00;99.90;;;;;;5079102;28;20035;-68
2023/09/20 12:12:52;;;;;;;0.57;0.22;;;25.50;99.90;;;;;;5111943;27;20058;-68
2023/09/20 12:15:22;;;;;;;0.68;0.20;;;24.90;99.90;;;;;;5083109;28;20499;-69
2023/09/20 12:17:51;;;;;;;2.08;0.40;;;24.10;99.90;;;;;;5072586;28;20082;-68
2023/09/20 12:20:17;;;;;;;1.85;0.73;;;23.70;99.90;;;;;;5071040;28;20032;-68
2023/09/20 12:22:44;;;;;;;1.05;0.35;;;23.30;99.90;;;;;;5111485;27;20479;-67
2023/09/20 12:25:16;;;;;;;1.75;0.30;;;23.30;99.90;;;;;;5115698;27;20143;-69
2023/09/20 12:27:43;;;;;;;0.95;0.50;;;23.20;99.90;;;;;;5077453;28;20046;-68
2023/09/20 12:30:12;;;;;;;0.63;0.28;;;22.80;99.90;;;;;;5077839;28;20054;-68
2023/09/20 12:32:42;;;;;;;0.55;0.28;;;22.80;99.90;;;;;;5115244;27;20048;-69
2023/09/20 12:35:11;;;;;;;0.52;0.30;;;22.90;99.90;;;;;;5078442;28;20069;-68
2023/09/20 12:37:37;;;;;;;2.92;0.70;;;23.00;99.90;;;;;;5078397;28;20120;-68
2023/09/20 12:40:08;;;;;;;0.55;0.20;;;23.30;99.90;;;;;;5112435;28;20032;-68
2023/09/20 12:42:34;;;;;;;1.73;0.40;;;23.90;99.90;;;;;;5098303;28;20052;-68
2023/09/20 12:45:07;;;;;;;1.60;0.17;;;24.30;99.90;;;;;;5075668;28;20039;-70
2023/09/20 12:47:39;;;;;;;0.65;0.40;;;24.80;99.90;;;;;;5081889;28;20119;-68
2023/09/20 12:50:08;;;;;;;0.80;0.13;;;25.40;99.90;;;;;;5101558;28;20047;-69
2023/09/20 12:52:34;;;;;;;2.08;0.40;;;25.40;99.90;;;;;;5099288;28;20040;-68
2023/09/20 12:54:59;;;;;;;0.80;0.30;;;25.60;99.90;;;;;;5082552;28;20202;-69
2023/09/20 12:57:25;;;;;;;0.60;0.20;;;25.50;99.90;;;;;;5065290;28;20123;-69
2023/09/20 12:59:52;;;;;;;0.50;0.10;;;25.00;99.90;;;;;;5095659;28;20036;-68
2023/09/20 13:02:18;;;;;;;1.38;0.20;;;24.80;99.90;;;;;;5079003;28;20054;-69
2023/09/20 13:04:46;;;;;;;2.38;0.38;;;24.90;99.90;;;;;;5072756;28;20563;-68
2023/09/20 13:07:12;;;;;;;1.08;0.35;;;25.20;99.90;;;;;;5079015;28;20064;-68
2023/09/20 13:09:39;;;;;;;0.50;0.20;;;25.60;99.90;;;;;;5078746;28;20131;-69
2023/09/20 13:12:05;;;;;;;0.50;0.28;;;25.40;99.90;;;;;;5117951;27;20577;-68
2023/09/20 13:14:31;;;;;;;0.30;0.20;;;25.20;99.90;;;;;;5060575;28;20455;-69
2023/09/20 13:16:57;;;;;;;0.88;0.40;;;25.10;99.90;;;;;;5113857;27;20024;-69
2023/09/20 13:19:23;;;;;;;0.28;0.08;;;24.70;99.90;;;;;;5078693;28;20032;-70
2023/09/20 13:21:48;;;;;;;0.15;0.10;;;25.10;99.90;;;;;;5078255;28;20086;-69
2023/09/20 13:24:15;;;;;;;0.47;0.20;;;25.60;99.90;;;;;;5111758;27;20450;-69
2023/09/20 13:26:41;;;;;;;0.52;0.20;;;25.70;99.90;;;;;;5075557;28;20072;-68
2023/09/20 13:29:07;;;;;;;0.50;0.20;;;25.40;99.90;;;;;;5075279;28;20353;-69